createdAt,value
2018-11-25T00:01:42.451Z,4.50
2018-11-25T00:04:09.376Z,4.56
2018-11-25T00:06:36.299Z,4.87
2018-11-25T00:09:04.923Z,4.56
2018-11-25T00:11:31.929Z,4.69
2018-11-25T00:13:58.825Z,4.87
2018-11-25T00:16:25.763Z,4.50
2018-11-25T00:18:52.818Z,4.81
2018-11-25T00:21:19.790Z,4.62
2018-11-25T00:23:46.697Z,4.75
2018-11-25T00:26:13.717Z,4.62
2018-11-25T00:28:40.747Z,4.87
2018-11-25T00:31:09.649Z,4.75
2018-11-25T00:33:34.746Z,4.75
2018-11-25T00:36:01.724Z,5.06
2018-11-25T00:38:28.686Z,4.94
2018-11-25T00:40:55.624Z,4.62
2018-11-25T00:43:22.541Z,4.69
2018-11-25T00:45:49.477Z,4.87
2018-11-25T00:48:16.466Z,4.87
2018-11-25T00:50:43.448Z,4.94
2018-11-25T00:53:10.348Z,4.75
2018-11-25T00:55:37.267Z,4.62
2018-11-25T00:58:04.249Z,4.44
2018-11-25T01:00:31.183Z,4.75
2018-11-25T01:02:58.131Z,4.44
2018-11-25T01:05:25.054Z,4.81
2018-11-25T01:07:52.017Z,4.69
2018-11-25T01:10:18.984Z,4.50
2018-11-25T01:12:46.016Z,4.56
2018-11-25T01:15:14.714Z,4.62
2018-11-25T01:17:41.710Z,4.56
2018-11-25T01:20:10.605Z,4.62
2018-11-25T01:22:37.585Z,4.44
2018-11-25T01:25:05.430Z,4.62
2018-11-25T01:27:32.462Z,4.44
2018-11-25T01:29:59.487Z,4.50
2018-11-25T01:32:26.491Z,4.56
2018-11-25T01:35:00.864Z,4.37
2018-11-25T01:37:20.487Z,4.56
2018-11-25T01:39:48.151Z,4.62
2018-11-25T01:42:15.072Z,4.56
2018-11-25T01:44:42.024Z,4.56
2018-11-25T01:47:10.028Z,4.87
2018-11-25T01:49:36.998Z,4.56
2018-11-25T01:52:04.146Z,4.81
2018-11-25T01:54:31.089Z,4.75
2018-11-25T01:56:58.099Z,4.44
2018-11-25T01:59:25.090Z,4.62
2018-11-25T02:01:52.195Z,4.62
2018-11-25T02:04:19.216Z,4.75
2018-11-25T02:06:46.187Z,4.75
2018-11-25T02:09:13.138Z,4.75
2018-11-25T02:11:40.094Z,4.62
2018-11-25T02:14:07.067Z,4.69
2018-11-25T02:21:29.246Z,4.75
2018-11-25T02:23:56.456Z,4.69
2018-11-25T02:26:23.493Z,4.75
2018-11-25T02:28:50.473Z,4.62
2018-11-25T02:31:17.426Z,4.69
2018-11-25T02:33:44.368Z,4.87
2018-11-25T02:36:11.342Z,4.44
2018-11-25T02:38:38.336Z,4.56
2018-11-25T02:41:05.298Z,4.44
2018-11-25T02:43:32.208Z,4.56
2018-11-25T02:45:59.233Z,4.87
2018-11-25T02:48:26.198Z,4.81
2018-11-25T02:50:53.228Z,4.81
2018-11-25T02:53:20.194Z,4.62
2018-11-25T02:55:47.287Z,4.75
2018-11-25T03:03:09.016Z,4.75
2018-11-25T03:05:36.051Z,4.87
2018-11-25T03:08:03.124Z,4.87
2018-11-25T03:10:30.149Z,4.69
2018-11-25T03:12:57.125Z,4.75
2018-11-25T03:15:24.153Z,4.56
2018-11-25T03:17:51.207Z,4.56
2018-11-25T03:20:18.276Z,4.62
2018-11-25T03:22:45.331Z,4.62
2018-11-25T03:25:18.516Z,4.62
2018-11-25T03:27:45.847Z,4.75
2018-11-25T03:30:14.616Z,4.69
2018-11-25T03:32:42.478Z,4.87
2018-11-25T03:35:10.409Z,4.75
2018-11-25T03:37:37.396Z,4.62
2018-11-25T03:40:06.311Z,4.69
2018-11-25T03:42:33.250Z,5.00
2018-11-25T03:49:55.127Z,4.75
2018-11-25T03:52:22.161Z,4.81
2018-11-25T03:54:49.131Z,4.62
2018-11-25T03:57:16.113Z,4.81
2018-11-25T03:59:43.067Z,4.69
2018-11-25T04:02:10.008Z,4.87
2018-11-25T04:04:36.993Z,4.75
2018-11-25T04:07:04.067Z,4.94
2018-11-25T04:09:31.152Z,4.75
2018-11-25T04:11:58.082Z,4.69
2018-11-25T04:14:25.004Z,4.75
2018-11-25T04:16:52.008Z,4.75
2018-11-25T04:19:18.952Z,5.00
2018-11-25T04:21:45.960Z,4.94
2018-11-25T04:24:12.876Z,4.94
2018-11-25T04:26:39.870Z,4.75
2018-11-25T04:29:06.830Z,4.94
2018-11-25T04:31:33.794Z,4.81
2018-11-25T04:34:00.737Z,4.75
2018-11-25T04:36:27.669Z,4.75
2018-11-25T04:38:54.722Z,4.81
2018-11-25T04:41:21.682Z,4.87
2018-11-25T04:43:48.806Z,4.75
2018-11-25T04:46:15.885Z,4.87
2018-11-25T04:48:42.846Z,5.06
2018-11-25T04:51:09.777Z,4.94
2018-11-25T04:53:36.758Z,4.75
2018-11-25T04:56:04.065Z,4.87
2018-11-25T04:58:31.118Z,4.87
2018-11-25T05:00:58.064Z,4.94
2018-11-25T05:03:25.082Z,5.06
2018-11-25T05:05:52.136Z,5.00
2018-11-25T05:13:14.100Z,4.87
2018-11-25T05:15:41.066Z,4.87
2018-11-25T05:18:08.062Z,4.94
2018-11-25T05:20:35.025Z,5.06
2018-11-25T05:23:02.104Z,4.94
2018-11-25T05:25:29.159Z,4.81
2018-11-25T05:27:56.204Z,5.06
2018-11-25T05:30:23.159Z,5.19
2018-11-25T05:32:50.255Z,5.12
2018-11-25T05:35:18.865Z,5.12
2018-11-25T05:37:45.896Z,4.94
2018-11-25T05:40:13.677Z,5.19
2018-11-25T05:42:40.722Z,5.06
2018-11-25T05:45:10.892Z,4.94
2018-11-25T05:47:37.854Z,5.25
2018-11-25T05:50:07.233Z,5.19
2018-11-25T05:52:34.231Z,5.06
2018-11-25T05:55:01.185Z,5.12
2018-11-25T05:57:28.162Z,5.12
2018-11-25T05:59:55.241Z,5.25
2018-11-25T06:02:22.240Z,5.19
2018-11-25T06:04:49.175Z,5.00
2018-11-25T06:07:16.096Z,5.19
2018-11-25T06:09:43.060Z,5.00
2018-11-25T06:12:09.999Z,5.19
2018-11-25T06:14:36.905Z,5.12
2018-11-25T06:17:03.992Z,5.06
2018-11-25T06:19:31.009Z,5.00
2018-11-25T06:21:58.097Z,4.94
2018-11-25T06:24:25.128Z,5.00
2018-11-25T06:26:52.055Z,5.06
2018-11-25T06:29:18.988Z,5.06
2018-11-25T06:31:45.993Z,5.06
2018-11-25T06:34:12.949Z,4.94
2018-11-25T06:36:39.941Z,4.81
2018-11-25T06:39:08.204Z,4.94
2018-11-25T06:41:35.223Z,4.94
2018-11-25T06:44:02.423Z,4.87
2018-11-25T06:46:29.488Z,4.81
2018-11-25T06:48:56.560Z,5.00
2018-11-25T06:51:23.586Z,4.94
2018-11-25T06:53:50.554Z,4.75
2018-11-25T06:56:17.547Z,4.94
2018-11-25T06:58:44.524Z,5.06
2018-11-25T07:01:11.572Z,4.81
2018-11-25T07:03:38.530Z,4.81
2018-11-25T07:06:05.497Z,4.87
2018-11-25T07:08:32.492Z,4.87
2018-11-25T07:10:59.491Z,4.81
2018-11-25T07:13:26.465Z,4.81
2018-11-25T07:15:53.391Z,4.94
2018-11-25T07:18:20.373Z,4.81
2018-11-25T07:20:47.516Z,5.06
2018-11-25T07:23:14.536Z,5.06
2018-11-25T07:25:41.535Z,5.00
2018-11-25T07:28:18.563Z,5.06
2018-11-25T07:30:35.575Z,4.94
2018-11-25T07:33:02.512Z,4.94
2018-11-25T07:35:29.445Z,5.06
2018-11-25T07:37:56.432Z,4.81
2018-11-25T07:40:24.139Z,5.12
2018-11-25T07:42:51.106Z,5.12
2018-11-25T07:45:19.148Z,5.12
2018-11-25T07:47:46.133Z,5.25
2018-11-25T07:50:13.245Z,5.25
2018-11-25T07:52:40.882Z,5.25
2018-11-25T07:55:13.738Z,4.94
2018-11-25T07:57:40.741Z,4.94
2018-11-25T08:00:12.935Z,5.19
2018-11-25T08:02:41.593Z,5.00
2018-11-25T08:05:08.189Z,5.19
2018-11-25T08:07:35.235Z,5.00
2018-11-25T08:10:02.365Z,5.06
2018-11-25T08:12:29.351Z,5.25
2018-11-25T08:14:56.346Z,5.12
2018-11-25T08:17:23.431Z,5.06
2018-11-25T08:19:50.482Z,5.12
2018-11-25T08:22:17.480Z,5.12
2018-11-25T08:24:44.779Z,5.12
2018-11-25T08:27:11.786Z,5.37
2018-11-25T08:29:38.831Z,5.25
2018-11-25T08:32:05.866Z,5.44
2018-11-25T08:34:33.395Z,5.44
2018-11-25T08:37:00.459Z,5.31
2018-11-25T08:39:28.410Z,5.44
2018-11-25T08:41:54.404Z,5.44
2018-11-25T08:44:21.322Z,5.37
2018-11-25T08:46:48.332Z,5.37
2018-11-25T08:49:15.353Z,5.44
2018-11-25T08:51:42.299Z,5.56
2018-11-25T08:54:09.316Z,5.56
2018-11-25T08:56:36.233Z,5.56
2018-11-25T08:59:03.934Z,5.50
2018-11-25T09:01:30.890Z,5.81
2018-11-25T09:03:57.887Z,5.56
2018-11-25T09:06:25.763Z,5.62
2018-11-25T09:08:52.685Z,5.56
2018-11-25T09:11:19.661Z,5.75
2018-11-25T09:13:46.582Z,5.62
2018-11-25T09:16:13.518Z,5.69
2018-11-25T09:18:40.542Z,5.75
2018-11-25T09:21:07.565Z,5.75
2018-11-25T09:23:34.727Z,5.69
2018-11-25T09:26:01.644Z,5.69
2018-11-25T09:28:28.679Z,5.87
2018-11-25T09:30:55.618Z,5.87
2018-11-25T09:33:22.524Z,5.87
2018-11-25T09:35:49.535Z,6.06
2018-11-25T09:38:16.568Z,5.75
2018-11-25T09:40:44.732Z,6.12
2018-11-25T09:43:10.462Z,5.94
2018-11-25T09:45:37.389Z,6.06
2018-11-25T09:48:04.324Z,6.25
2018-11-25T09:50:31.251Z,6.25
2018-11-25T09:52:58.924Z,6.06
2018-11-25T09:55:25.891Z,6.06
2018-11-25T09:57:55.968Z,5.87
2018-11-25T10:00:24.110Z,5.87
2018-11-25T10:02:51.094Z,6.00
2018-11-25T10:05:18.093Z,6.12
2018-11-25T10:07:45.544Z,6.12
2018-11-25T10:10:13.660Z,5.87
2018-11-25T10:12:40.690Z,6.19
2018-11-25T10:15:08.899Z,6.12
2018-11-25T10:17:35.906Z,6.25
2018-11-25T10:20:12.644Z,6.12
2018-11-25T10:22:39.614Z,6.12
2018-11-25T10:25:10.136Z,6.12
2018-11-25T10:27:37.105Z,6.12
2018-11-25T10:30:09.113Z,6.12
2018-11-25T10:32:36.041Z,6.31
2018-11-25T10:35:03.021Z,6.25
2018-11-25T10:37:29.981Z,5.94
2018-11-25T10:39:56.991Z,6.06
2018-11-25T10:42:23.973Z,6.25
2018-11-25T10:44:50.948Z,6.31
2018-11-25T10:47:17.921Z,6.50
2018-11-25T10:49:45.058Z,6.19
2018-11-25T10:52:11.984Z,6.25
2018-11-25T10:54:38.913Z,6.31
2018-11-25T10:57:06.323Z,6.50
2018-11-25T10:59:33.482Z,6.44
2018-11-25T11:02:06.084Z,6.19
2018-11-25T11:04:38.870Z,6.19
2018-11-25T11:07:11.568Z,6.62
2018-11-25T11:09:38.597Z,6.56
2018-11-25T11:12:05.655Z,6.62
2018-11-25T11:14:32.607Z,6.62
2018-11-25T11:16:59.602Z,6.44
2018-11-25T11:19:26.594Z,6.56
2018-11-25T11:21:53.570Z,6.25
2018-11-25T11:24:20.561Z,6.50
2018-11-25T11:26:48.697Z,6.75
2018-11-25T11:29:14.555Z,6.56
2018-11-25T11:31:42.277Z,6.56
2018-11-25T11:34:09.256Z,6.44
2018-11-25T11:36:36.671Z,6.62
2018-11-25T11:39:06.430Z,6.44
2018-11-25T11:41:33.426Z,6.37
2018-11-25T11:44:00.383Z,6.56
2018-11-25T11:46:27.359Z,6.56
2018-11-25T11:48:54.316Z,6.69
2018-11-25T11:51:25.553Z,6.31
2018-11-25T11:53:48.286Z,6.31
2018-11-25T11:56:15.742Z,6.87
2018-11-25T11:58:42.717Z,6.81
2018-11-25T12:01:09.634Z,6.75
2018-11-25T12:03:36.566Z,6.62
2018-11-25T12:06:03.545Z,6.44
2018-11-25T12:08:30.649Z,6.81
2018-11-25T12:10:57.608Z,6.56
2018-11-25T12:13:24.584Z,6.62
2018-11-25T12:15:51.508Z,6.44
2018-11-25T12:18:18.467Z,6.62
2018-11-25T12:20:45.487Z,6.69
2018-11-25T12:23:12.496Z,6.44
2018-11-25T12:25:39.451Z,6.75
2018-11-25T12:28:06.659Z,6.56
2018-11-25T12:30:33.639Z,6.56
2018-11-25T12:33:00.654Z,6.87
2018-11-25T12:35:27.604Z,6.50
2018-11-25T12:37:54.580Z,6.56
2018-11-25T12:40:22.242Z,6.44
2018-11-25T12:42:52.614Z,6.69
2018-11-25T12:45:19.613Z,6.69
2018-11-25T12:47:46.599Z,6.69
2018-11-25T12:50:15.888Z,6.69
2018-11-25T12:52:42.897Z,6.81
2018-11-25T12:55:12.354Z,6.75
2018-11-25T12:57:39.368Z,6.69
2018-11-25T13:00:26.618Z,6.50
2018-11-25T13:02:53.871Z,6.56
2018-11-25T13:05:21.174Z,6.94
2018-11-25T13:07:48.459Z,6.69
2018-11-25T13:10:15.850Z,6.75
2018-11-25T13:12:43.129Z,7.19
2018-11-25T13:15:10.181Z,7.00
2018-11-25T13:17:37.266Z,7.00
2018-11-25T13:20:07.575Z,7.06
2018-11-25T13:22:35.176Z,7.19
2018-11-25T13:25:05.675Z,6.62
2018-11-25T13:27:33.919Z,6.81
2018-11-25T13:30:01.289Z,6.75
2018-11-25T13:32:28.716Z,6.62
2018-11-25T13:34:55.708Z,6.87
2018-11-25T13:37:23.055Z,6.75
2018-11-25T13:39:50.529Z,6.75
2018-11-25T13:42:18.154Z,7.06
2018-11-25T13:44:44.882Z,7.19
2018-11-25T13:47:12.636Z,7.12
2018-11-25T13:49:40.402Z,6.75
2018-11-25T13:52:07.949Z,6.50
2018-11-25T13:54:35.806Z,6.50
2018-11-25T13:57:03.210Z,6.87
2018-11-25T13:59:30.589Z,6.62
2018-11-25T14:01:57.628Z,6.87
2018-11-25T14:04:24.833Z,7.06
2018-11-25T14:06:51.856Z,7.19
2018-11-25T14:09:18.801Z,6.75
2018-11-25T14:11:45.824Z,6.50
2018-11-25T14:14:12.828Z,6.94
2018-11-25T14:16:40.019Z,6.56
2018-11-25T14:19:06.984Z,6.44
2018-11-25T14:21:33.988Z,6.62
2018-11-25T14:24:01.026Z,6.75
2018-11-25T14:26:31.684Z,7.19
2018-11-25T14:28:58.652Z,7.19
2018-11-25T14:31:25.600Z,7.19
2018-11-25T14:33:52.698Z,7.25
2018-11-25T14:36:19.664Z,7.44
2018-11-25T14:38:46.629Z,7.06
2018-11-25T14:41:13.595Z,7.12
2018-11-25T14:43:59.520Z,6.81
2018-11-25T14:46:26.543Z,6.81
2018-11-25T14:48:53.529Z,6.87
2018-11-25T14:51:20.498Z,6.62
2018-11-25T14:53:48.493Z,6.44
2018-11-25T14:56:15.688Z,7.00
2018-11-25T14:58:43.319Z,6.31
2018-11-25T15:01:10.602Z,6.69
2018-11-25T15:03:37.609Z,6.69
2018-11-25T15:06:04.778Z,6.81
2018-11-25T15:08:31.762Z,6.81
2018-11-25T15:10:58.916Z,6.44
2018-11-25T15:13:26.501Z,6.75
2018-11-25T15:15:55.056Z,6.56
2018-11-25T15:18:22.040Z,6.56
2018-11-25T15:20:50.602Z,6.69
2018-11-25T15:23:17.823Z,6.44
2018-11-25T15:25:46.737Z,6.37
2018-11-25T15:28:13.661Z,6.37
2018-11-25T15:30:40.769Z,6.50
2018-11-25T15:33:07.785Z,6.62
2018-11-25T15:35:34.969Z,6.62
2018-11-25T15:38:01.949Z,6.69
2018-11-25T15:40:31.338Z,7.12
2018-11-25T15:42:58.403Z,7.19
2018-11-25T15:45:25.761Z,7.25
2018-11-25T15:47:54.705Z,7.25
2018-11-25T15:50:25.052Z,7.31
2018-11-25T15:52:52.266Z,7.37
2018-11-25T15:55:19.494Z,6.87
2018-11-25T15:57:46.459Z,6.87
2018-11-25T16:00:15.607Z,6.56
2018-11-25T16:02:42.635Z,6.81
2018-11-25T16:05:11.115Z,6.44
2018-11-25T16:07:38.069Z,6.69
2018-11-25T16:15:01.998Z,6.62
2018-11-25T16:17:29.048Z,6.56
2018-11-25T16:19:56.157Z,6.44
2018-11-25T16:22:23.847Z,6.12
2018-11-25T16:24:50.878Z,6.81
2018-11-25T16:27:17.970Z,6.62
2018-11-25T16:29:45.040Z,6.25
2018-11-25T16:32:24.066Z,6.44
2018-11-25T16:34:51.294Z,6.69
2018-11-25T16:37:18.517Z,6.44
2018-11-25T16:39:45.637Z,6.44
2018-11-25T16:42:12.790Z,6.81
2018-11-25T16:44:39.923Z,6.62
2018-11-25T16:47:07.054Z,6.75
2018-11-25T16:49:34.368Z,6.75
2018-11-25T16:52:02.307Z,6.69
2018-11-25T16:54:29.361Z,6.37
2018-11-25T16:56:57.125Z,6.00
2018-11-25T16:59:24.752Z,6.62
2018-11-25T17:01:52.068Z,6.37
2018-11-25T17:04:19.132Z,6.06
2018-11-25T17:06:47.965Z,6.31
2018-11-25T17:09:15.049Z,6.31
2018-11-25T17:11:42.745Z,6.25
2018-11-25T17:14:09.905Z,6.62
2018-11-25T17:19:29.050Z,6.44
2018-11-25T17:21:56.085Z,6.25
2018-11-25T17:24:23.279Z,6.25
2018-11-25T17:26:50.383Z,6.19
2018-11-25T17:29:17.561Z,6.19
2018-11-25T17:31:44.720Z,6.25
2018-11-25T17:34:11.820Z,6.44
2018-11-25T17:36:38.900Z,6.62
2018-11-25T17:39:07.646Z,6.81
2018-11-25T17:41:34.834Z,6.87
2018-11-25T17:44:01.904Z,6.75
2018-11-25T17:46:28.972Z,6.44
2018-11-25T17:48:55.992Z,6.37
2018-11-25T17:51:22.989Z,6.37
2018-11-25T17:53:50.143Z,6.12
2018-11-25T17:56:17.643Z,6.44
2018-11-25T17:58:44.758Z,6.00
2018-11-25T18:01:11.861Z,6.12
2018-11-25T18:03:38.894Z,6.06
2018-11-25T18:06:05.963Z,6.12
2018-11-25T18:08:32.973Z,6.12
2018-11-25T18:11:00.029Z,6.12
2018-11-25T18:13:28.653Z,6.00
2018-11-25T18:15:57.324Z,5.81
2018-11-25T18:18:30.747Z,5.69
2018-11-25T18:20:59.848Z,5.75
2018-11-25T18:23:26.930Z,5.87
2018-11-25T18:25:53.961Z,5.94
2018-11-25T18:28:23.032Z,5.94
2018-11-25T18:30:50.025Z,5.87
2018-11-25T18:33:17.101Z,5.87
2018-11-25T18:35:44.134Z,5.81
2018-11-25T18:38:11.178Z,6.00
2018-11-25T18:40:38.242Z,6.06
2018-11-25T18:43:06.085Z,5.75
2018-11-25T18:45:33.137Z,5.75
2018-11-25T18:48:00.819Z,6.06
2018-11-25T18:50:28.251Z,5.75
2018-11-25T18:52:55.911Z,6.19
2018-11-25T18:55:22.141Z,6.12
2018-11-25T18:57:49.303Z,6.25
2018-11-25T19:00:27.307Z,6.25
2018-11-25T19:02:54.457Z,6.31
2018-11-25T19:05:21.649Z,6.06
2018-11-25T19:07:49.589Z,6.06
2018-11-25T19:10:17.925Z,6.00
2018-11-25T19:12:45.347Z,6.31
2018-11-25T19:15:13.790Z,6.25
2018-11-25T19:17:40.801Z,6.25
2018-11-25T19:20:17.672Z,6.37
2018-11-25T19:25:41.818Z,6.19
2018-11-25T19:28:09.751Z,5.94
2018-11-25T19:30:37.582Z,6.06
2018-11-25T19:33:06.575Z,5.94
2018-11-25T19:35:34.097Z,6.00
2018-11-25T19:38:02.041Z,5.87
2018-11-25T19:40:29.106Z,5.69
2018-11-25T19:42:56.270Z,6.06
2018-11-25T19:45:25.594Z,6.06
2018-11-25T19:47:53.479Z,5.81
2018-11-25T19:50:25.149Z,5.87
2018-11-25T19:52:52.160Z,5.81
2018-11-25T19:55:19.293Z,5.87
2018-11-25T19:57:46.337Z,5.87
2018-11-25T20:00:15.262Z,5.81
2018-11-25T20:02:42.556Z,5.62
2018-11-25T20:05:11.106Z,5.56
2018-11-25T20:07:38.466Z,5.62
2018-11-25T20:10:08.077Z,5.62
2018-11-25T20:12:42.496Z,5.75
2018-11-25T20:15:14.855Z,5.56
2018-11-25T20:17:42.119Z,5.62
2018-11-25T20:20:12.429Z,5.56
2018-11-25T20:22:39.834Z,5.56
2018-11-25T20:25:08.169Z,5.37
2018-11-25T20:27:39.943Z,5.56
2018-11-25T20:30:18.810Z,5.50
2018-11-25T20:33:00.702Z,5.50
2018-11-25T20:35:27.789Z,5.56
2018-11-25T20:38:00.583Z,5.44
2018-11-25T20:40:28.721Z,5.56
2018-11-25T20:43:04.490Z,5.50
2018-11-25T20:45:43.712Z,5.62
2018-11-25T20:48:10.983Z,5.50
2018-11-25T20:50:38.014Z,5.69
2018-11-25T20:53:10.954Z,5.37
2018-11-25T20:55:38.713Z,5.25
2018-11-25T20:58:07.164Z,5.25
2018-11-25T21:00:34.355Z,5.37
2018-11-25T21:03:01.443Z,5.56
2018-11-25T21:05:28.460Z,5.37
2018-11-25T21:07:55.596Z,5.31
2018-11-25T21:10:22.913Z,5.37
2018-11-25T21:13:01.047Z,5.37
2018-11-25T21:15:28.713Z,5.50
2018-11-25T21:17:56.547Z,5.25
2018-11-25T21:20:24.587Z,5.62
2018-11-25T21:22:51.773Z,5.31
2018-11-25T21:25:21.188Z,5.44
2018-11-25T21:27:48.287Z,5.56
2018-11-25T21:30:22.262Z,5.44
2018-11-25T21:32:52.710Z,5.25
2018-11-25T21:35:20.139Z,5.31
2018-11-25T21:37:48.434Z,5.44
2018-11-25T21:40:24.335Z,5.25
2018-11-25T21:42:51.442Z,5.31
2018-11-25T21:45:20.057Z,5.56
2018-11-25T21:47:47.532Z,5.37
2018-11-25T21:50:18.688Z,5.50
2018-11-25T21:52:45.971Z,5.12
2018-11-25T21:55:14.083Z,5.12
2018-11-25T22:02:35.855Z,5.25
2018-11-25T22:05:02.946Z,5.50
2018-11-25T22:07:29.955Z,5.25
2018-11-25T22:09:57.611Z,5.31
2018-11-25T22:12:24.637Z,5.12
2018-11-25T22:14:51.799Z,5.00
2018-11-25T22:17:18.875Z,5.37
2018-11-25T22:19:45.881Z,5.12
2018-11-25T22:22:12.965Z,5.19
2018-11-25T22:24:39.920Z,5.19
2018-11-25T22:27:06.910Z,5.25
2018-11-25T22:29:33.992Z,5.06
2018-11-25T22:32:00.973Z,5.06
2018-11-25T22:34:27.932Z,5.00
2018-11-25T22:36:54.906Z,5.06
2018-11-25T22:39:21.895Z,5.06
2018-11-25T22:41:48.963Z,5.12
2018-11-25T22:44:15.948Z,4.94
2018-11-25T22:46:42.956Z,4.94
2018-11-25T22:49:09.946Z,4.75
2018-11-25T22:51:36.913Z,5.00
2018-11-25T22:54:03.862Z,5.06
2018-11-25T22:56:30.801Z,5.06
2018-11-25T22:58:57.803Z,4.75
2018-11-25T23:01:24.757Z,4.94
2018-11-25T23:04:03.205Z,5.19
2018-11-25T23:06:41.785Z,4.81
2018-11-25T23:09:08.792Z,5.06
2018-11-25T23:11:35.808Z,5.31
2018-11-25T23:14:02.769Z,4.75
2018-11-25T23:16:29.709Z,4.75
2018-11-25T23:18:56.669Z,5.00
2018-11-25T23:21:23.664Z,4.94
2018-11-25T23:23:50.649Z,4.87
2018-11-25T23:26:17.612Z,4.69
2018-11-25T23:28:44.585Z,4.62
2018-11-25T23:31:11.505Z,4.75
2018-11-25T23:33:38.484Z,4.69
2018-11-25T23:36:05.430Z,4.50
2018-11-25T23:38:32.386Z,4.75
2018-11-25T23:40:59.383Z,4.81
2018-11-25T23:43:26.659Z,4.44
2018-11-25T23:45:54.671Z,4.62
2018-11-25T23:48:21.655Z,4.62
2018-11-25T23:50:48.857Z,4.56
2018-11-25T23:53:15.783Z,4.62
2018-11-25T23:55:42.739Z,4.44
2018-11-25T23:58:09.711Z,4.25
